createdAt,value
2023-04-22T00:00:54.855Z,100.00
2023-04-22T00:03:58.483Z,100.00
2023-04-22T00:07:02.227Z,100.00
2023-04-22T00:10:06.568Z,100.00
2023-04-22T00:13:09.774Z,100.00
2023-04-22T00:16:14.249Z,100.00
2023-04-22T00:19:17.385Z,100.00
2023-04-22T00:22:20.453Z,100.00
2023-04-22T00:25:26.507Z,100.00
2023-04-22T00:28:29.916Z,100.00
2023-04-22T00:31:34.518Z,100.00
2023-04-22T00:34:37.873Z,100.00
2023-04-22T00:37:43.995Z,100.00
2023-04-22T00:40:47.077Z,100.00
2023-04-22T00:43:52.431Z,100.00
2023-04-22T00:47:00.474Z,100.00
2023-04-22T00:50:19.572Z,100.00
2023-04-22T00:53:23.049Z,100.00
2023-04-22T00:56:30.452Z,100.00
2023-04-22T00:59:33.683Z,100.00
2023-04-22T01:02:39.607Z,100.00
2023-04-22T01:05:43.469Z,100.00
2023-04-22T01:08:59.074Z,100.00
2023-04-22T01:12:02.425Z,100.00
2023-04-22T01:15:12.371Z,100.00
2023-04-22T01:18:16.891Z,100.00
2023-04-22T01:21:48.997Z,100.00
2023-04-22T01:36:55.615Z,100.00
2023-04-22T01:40:32.594Z,100.00
2023-04-22T01:44:11.104Z,100.00
2023-04-22T01:51:21.799Z,100.00
2023-04-22T01:54:24.964Z,100.00
2023-04-22T01:57:30.584Z,100.00
2023-04-22T02:00:33.831Z,100.00
2023-04-22T02:03:44.568Z,100.00
2023-04-22T02:06:49.716Z,100.00
2023-04-22T02:09:53.953Z,100.00
2023-04-22T02:12:58.796Z,100.00
2023-04-22T02:16:03.638Z,100.00
2023-04-22T02:19:09.000Z,100.00
2023-04-22T02:22:13.784Z,100.00
2023-04-22T02:25:18.846Z,100.00
2023-04-22T02:28:23.557Z,100.00
2023-04-22T02:31:32.410Z,100.00
2023-04-22T02:34:36.465Z,100.00
2023-04-22T02:37:42.269Z,100.00
2023-04-22T02:40:45.596Z,100.00
2023-04-22T02:43:52.857Z,100.00
2023-04-22T02:46:59.016Z,100.00
2023-04-22T02:50:02.401Z,100.00
2023-04-22T02:53:05.486Z,100.00
2023-04-22T02:56:11.871Z,100.00
2023-04-22T02:59:16.321Z,100.00
2023-04-22T03:02:19.767Z,100.00
2023-04-22T03:09:22.005Z,100.00
2023-04-22T03:12:26.291Z,100.00
2023-04-22T03:15:30.755Z,100.00
2023-04-22T03:18:33.976Z,100.00
2023-04-22T03:21:37.267Z,100.00
2023-04-22T03:24:40.453Z,100.00
2023-04-22T03:27:54.018Z,100.00
2023-04-22T03:30:58.449Z,100.00
2023-04-22T03:34:01.572Z,100.00
2023-04-22T03:37:07.361Z,100.00
2023-04-22T03:40:13.687Z,100.00
2023-04-22T03:43:17.412Z,100.00
2023-04-22T03:46:30.247Z,100.00
2023-04-22T03:49:46.437Z,100.00
2023-04-22T03:52:49.900Z,100.00
2023-04-22T03:55:56.437Z,100.00
2023-04-22T03:59:00.389Z,100.00
2023-04-22T04:02:05.148Z,100.00
2023-04-22T04:05:11.062Z,100.00
2023-04-22T04:08:15.898Z,100.00
2023-04-22T04:11:31.424Z,100.00
2023-04-22T04:14:37.767Z,100.00
2023-04-22T04:17:43.597Z,100.00
2023-04-22T04:20:49.153Z,100.00
2023-04-22T04:23:54.724Z,100.00
2023-04-22T04:27:03.125Z,100.00
2023-04-22T04:30:14.472Z,100.00
2023-04-22T04:33:23.145Z,100.00
2023-04-22T04:36:29.114Z,100.00
2023-04-22T04:39:42.320Z,100.00
2023-04-22T04:42:46.613Z,100.00
2023-04-22T04:45:58.592Z,100.00
2023-04-22T04:49:12.565Z,100.00
2023-04-22T04:52:28.041Z,100.00
2023-04-22T04:55:31.405Z,100.00
2023-04-22T04:58:35.581Z,100.00
2023-04-22T05:01:48.263Z,100.00
2023-04-22T05:04:53.013Z,100.00
2023-04-22T05:07:56.754Z,100.00
2023-04-22T05:11:00.696Z,100.00
2023-04-22T05:14:04.162Z,100.00
2023-04-22T05:17:11.117Z,100.00
2023-04-22T05:20:15.516Z,100.00
2023-04-22T05:23:18.563Z,100.00
2023-04-22T05:26:23.336Z,100.00
2023-04-22T05:29:29.501Z,100.00
2023-04-22T05:32:35.735Z,100.00
2023-04-22T05:35:40.553Z,100.00
2023-04-22T05:38:46.847Z,100.00
2023-04-22T05:41:54.656Z,100.00
2023-04-22T05:44:59.281Z,100.00
2023-04-22T05:48:02.405Z,100.00
2023-04-22T05:51:10.575Z,100.00
2023-04-22T05:54:14.414Z,100.00
2023-04-22T05:57:18.088Z,100.00
2023-04-22T06:00:21.274Z,100.00
2023-04-22T06:03:37.744Z,100.00
2023-04-22T06:06:42.472Z,100.00
2023-04-22T06:09:45.653Z,100.00
2023-04-22T06:12:53.080Z,100.00
2023-04-22T06:15:56.908Z,100.00
2023-04-22T06:18:59.993Z,100.00
2023-04-22T06:22:05.500Z,100.00
2023-04-22T06:25:09.477Z,100.00
2023-04-22T06:28:13.953Z,100.00
2023-04-22T06:31:18.819Z,100.00
2023-04-22T06:34:23.766Z,100.00
2023-04-22T06:41:50.384Z,100.00
2023-04-22T06:46:14.772Z,100.00
2023-04-22T06:49:45.768Z,100.00
2023-04-22T06:53:00.527Z,100.00
2023-04-22T06:56:39.337Z,100.00
2023-04-22T07:00:05.605Z,100.00
2023-04-22T07:03:22.424Z,100.00
2023-04-22T07:07:12.292Z,100.00
2023-04-22T07:10:36.676Z,97.10
2023-04-22T07:14:26.197Z,95.58
2023-04-22T07:17:29.565Z,95.22
2023-04-22T07:20:32.914Z,97.40
2023-04-22T07:23:39.806Z,94.52
2023-04-22T07:26:46.654Z,90.99
2023-04-22T07:29:55.770Z,88.79
2023-04-22T07:33:02.213Z,88.04
2023-04-22T07:36:07.228Z,88.08
2023-04-22T07:39:12.933Z,85.29
2023-04-22T07:42:20.621Z,85.93
2023-04-22T07:45:23.884Z,83.75
2023-04-22T07:48:29.842Z,85.57
2023-04-22T07:51:33.324Z,87.58
2023-04-22T07:54:39.271Z,83.33
2023-04-22T07:57:43.729Z,83.17
2023-04-22T08:00:47.415Z,82.97
2023-04-22T08:03:51.257Z,80.78
2023-04-22T08:06:56.940Z,83.89
2023-04-22T08:10:00.751Z,79.24
2023-04-22T08:13:06.048Z,79.95
2023-04-22T08:16:09.411Z,81.02
2023-04-22T08:19:15.087Z,74.68
2023-04-22T08:22:29.976Z,74.16
2023-04-22T08:25:37.681Z,80.47
2023-04-22T08:28:46.962Z,75.22
2023-04-22T08:31:53.560Z,71.25
2023-04-22T08:35:05.454Z,69.05
2023-04-22T08:38:12.266Z,70.05
2023-04-22T08:41:16.438Z,70.67
2023-04-22T08:44:23.554Z,67.25
2023-04-22T08:47:34.000Z,66.70
2023-04-22T08:50:56.328Z,68.10
2023-04-22T08:54:00.468Z,62.73
2023-04-22T08:57:03.770Z,62.99
2023-04-22T09:00:10.050Z,64.88
2023-04-22T09:06:39.919Z,65.55
2023-04-22T09:09:46.910Z,64.17
2023-04-22T09:12:54.140Z,69.76
2023-04-22T09:15:59.979Z,61.31
2023-04-22T09:19:08.325Z,60.83
2023-04-22T09:22:14.519Z,60.13
2023-04-22T09:25:24.026Z,56.20
2023-04-22T09:28:28.469Z,56.38
2023-04-22T09:31:34.144Z,58.37
2023-04-22T09:34:50.976Z,56.37
2023-04-22T09:37:54.757Z,57.11
2023-04-22T09:41:01.087Z,53.59
2023-04-22T09:44:08.108Z,55.07
2023-04-22T09:47:15.010Z,59.38
2023-04-22T09:50:32.131Z,53.26
2023-04-22T09:53:38.822Z,52.30
2023-04-22T09:56:49.645Z,58.46
2023-04-22T09:59:56.173Z,55.44
2023-04-22T10:03:02.151Z,52.69
2023-04-22T10:06:24.299Z,52.20
2023-04-22T10:09:28.992Z,52.63
2023-04-22T10:12:35.961Z,50.99
2023-04-22T10:15:44.175Z,49.33
2023-04-22T10:18:50.285Z,49.89
2023-04-22T10:21:57.302Z,49.83
2023-04-22T10:25:00.480Z,48.11
2023-04-22T10:32:10.258Z,45.19
2023-04-22T10:35:21.628Z,46.70
2023-04-22T10:38:27.898Z,47.97
2023-04-22T10:41:36.767Z,44.48
2023-04-22T10:44:54.076Z,45.43
2023-04-22T10:48:18.432Z,44.63
2023-04-22T10:51:53.764Z,47.55
2023-04-22T10:56:17.322Z,44.72
2023-04-22T10:59:30.143Z,45.37
2023-04-22T11:08:07.356Z,44.07
2023-04-22T11:11:13.810Z,40.92
2023-04-22T11:14:22.922Z,40.09
2023-04-22T11:17:27.790Z,40.69
2023-04-22T11:20:31.892Z,43.19
2023-04-22T11:23:37.067Z,41.30
2023-04-22T11:26:41.427Z,39.19
2023-04-22T11:30:00.853Z,39.49
2023-04-22T11:33:43.827Z,40.10
2023-04-22T11:36:50.074Z,39.65
2023-04-22T11:43:15.116Z,43.70
2023-04-22T11:46:29.431Z,40.65
2023-04-22T11:49:33.684Z,38.90
2023-04-22T11:52:53.417Z,41.02
2023-04-22T11:55:58.152Z,39.60
2023-04-22T11:59:11.252Z,39.63
2023-04-22T12:02:14.761Z,40.23
2023-04-22T12:05:17.983Z,38.58
2023-04-22T12:08:24.740Z,40.53
2023-04-22T12:11:29.568Z,39.66
2023-04-22T12:14:36.194Z,38.39
2023-04-22T12:17:52.292Z,35.50
2023-04-22T12:20:56.057Z,36.62
2023-04-22T12:24:11.538Z,34.77
2023-04-22T12:27:18.774Z,37.91
2023-04-22T12:30:23.607Z,36.54
2023-04-22T12:33:28.217Z,34.67
2023-04-22T12:40:20.688Z,36.31
2023-04-22T12:43:30.505Z,35.33
2023-04-22T12:46:49.405Z,36.64
2023-04-22T12:50:01.448Z,35.26
2023-04-22T12:53:05.430Z,35.79
2023-04-22T12:56:17.499Z,35.03
2023-04-22T13:03:58.709Z,35.66
2023-04-22T13:07:05.134Z,33.44
2023-04-22T13:10:12.109Z,33.78
2023-04-22T13:13:19.042Z,35.35
2023-04-22T13:16:27.988Z,34.84
2023-04-22T13:19:52.780Z,35.21
2023-04-22T13:22:56.501Z,33.67
2023-04-22T13:26:01.806Z,32.84
2023-04-22T13:29:11.109Z,35.34
2023-04-22T13:32:21.592Z,34.80
2023-04-22T13:35:27.960Z,35.22
2023-04-22T13:38:37.122Z,33.80
2023-04-22T13:41:47.963Z,34.61
2023-04-22T13:45:07.991Z,32.77
2023-04-22T13:48:16.055Z,36.77
2023-04-22T13:51:21.372Z,33.03
2023-04-22T13:54:28.441Z,31.13
2023-04-22T13:57:49.144Z,34.65
2023-04-22T14:01:07.548Z,34.60
2023-04-22T14:04:13.994Z,33.39
2023-04-22T14:07:17.908Z,37.15
2023-04-22T14:10:32.669Z,33.63
2023-04-22T14:13:41.174Z,32.99
2023-04-22T14:16:55.159Z,32.34
2023-04-22T14:20:02.741Z,33.08
2023-04-22T14:23:06.412Z,32.91
2023-04-22T14:26:13.214Z,33.22
2023-04-22T14:29:29.748Z,31.25
2023-04-22T14:32:33.704Z,32.86
2023-04-22T14:35:51.265Z,31.17
2023-04-22T14:38:58.196Z,32.20
2023-04-22T14:42:02.580Z,31.13
2023-04-22T14:45:07.425Z,32.33
2023-04-22T14:48:15.540Z,32.27
2023-04-22T14:51:23.239Z,34.06
2023-04-22T14:54:26.636Z,33.74
2023-04-22T14:57:37.351Z,34.26
2023-04-22T15:00:42.571Z,35.89
2023-04-22T15:03:55.528Z,33.75
2023-04-22T15:07:01.213Z,34.21
2023-04-22T15:10:05.331Z,32.06
2023-04-22T15:13:10.300Z,34.52
2023-04-22T15:16:16.921Z,33.23
2023-04-22T15:19:21.297Z,31.29
2023-04-22T15:22:37.694Z,33.79
2023-04-22T15:25:47.666Z,30.87
2023-04-22T15:28:56.040Z,32.25
2023-04-22T15:32:04.772Z,31.99
2023-04-22T15:35:11.763Z,31.54
2023-04-22T15:38:19.866Z,31.49
2023-04-22T15:41:24.167Z,31.98
2023-04-22T15:44:28.347Z,31.38
2023-04-22T15:47:31.727Z,34.30
2023-04-22T15:50:34.764Z,33.59
2023-04-22T15:53:45.307Z,31.98
2023-04-22T15:56:48.394Z,31.61
2023-04-22T16:00:02.878Z,32.78
2023-04-22T16:03:20.461Z,34.47
2023-04-22T16:06:24.084Z,34.85
2023-04-22T16:09:34.491Z,34.94
2023-04-22T16:12:38.775Z,33.73
2023-04-22T16:16:11.723Z,35.79
2023-04-22T16:19:48.401Z,34.01
2023-04-22T16:22:53.006Z,35.05
2023-04-22T16:29:56.269Z,33.25
2023-04-22T16:38:13.167Z,35.29
2023-04-22T16:41:43.027Z,36.08
2023-04-22T16:45:06.087Z,34.88
2023-04-22T16:48:11.595Z,35.94
2023-04-22T16:51:14.874Z,35.09
2023-04-22T16:54:18.457Z,35.26
2023-04-22T16:57:22.792Z,36.00
2023-04-22T17:00:25.850Z,37.19
2023-04-22T17:03:29.506Z,39.35
2023-04-22T17:06:33.114Z,36.50
2023-04-22T17:09:36.390Z,37.10
2023-04-22T17:12:40.754Z,37.38
2023-04-22T17:15:44.351Z,37.29
2023-04-22T17:18:50.240Z,37.81
2023-04-22T17:21:55.563Z,37.29
2023-04-22T17:24:58.910Z,38.73
2023-04-22T17:28:03.423Z,39.59
2023-04-22T17:31:06.492Z,38.21
2023-04-22T17:34:09.549Z,38.72
2023-04-22T17:37:15.593Z,37.80
2023-04-22T17:40:18.840Z,39.94
2023-04-22T17:43:24.776Z,38.88
2023-04-22T17:46:27.793Z,39.41
2023-04-22T17:49:30.844Z,39.12
2023-04-22T17:52:36.837Z,40.06
2023-04-22T17:55:40.605Z,41.63
2023-04-22T17:58:56.500Z,41.48
2023-04-22T18:02:01.067Z,43.39
2023-04-22T18:05:05.535Z,41.86
2023-04-22T18:08:10.373Z,44.61
2023-04-22T18:11:13.628Z,44.98
2023-04-22T18:14:20.732Z,45.85
2023-04-22T18:17:24.287Z,44.41
2023-04-22T18:20:27.477Z,43.57
2023-04-22T18:23:30.705Z,44.03
2023-04-22T18:26:33.768Z,44.80
2023-04-22T18:29:41.314Z,44.77
2023-04-22T18:32:45.310Z,45.30
2023-04-22T18:35:51.487Z,46.43
2023-04-22T18:38:54.621Z,47.82
2023-04-22T18:41:59.641Z,46.27
2023-04-22T18:45:08.401Z,48.34
2023-04-22T18:48:11.744Z,48.10
2023-04-22T18:51:14.809Z,48.33
2023-04-22T18:54:21.118Z,50.00
2023-04-22T18:57:24.266Z,50.24
2023-04-22T19:00:28.917Z,50.63
2023-04-22T19:03:32.561Z,52.02
2023-04-22T19:06:35.776Z,51.93
2023-04-22T19:09:40.097Z,55.28
2023-04-22T19:12:43.169Z,55.93
2023-04-22T19:15:47.529Z,55.50
2023-04-22T19:18:51.259Z,56.86
2023-04-22T19:21:54.531Z,55.54
2023-04-22T19:24:58.637Z,55.97
2023-04-22T19:28:01.666Z,57.35
2023-04-22T19:31:06.263Z,58.06
2023-04-22T19:34:10.565Z,57.76
2023-04-22T19:37:14.410Z,59.56
2023-04-22T19:40:18.751Z,60.83
2023-04-22T19:43:22.679Z,60.53
2023-04-22T19:46:27.057Z,62.36
2023-04-22T19:49:32.418Z,60.43
2023-04-22T19:52:36.295Z,62.77
2023-04-22T19:55:45.161Z,66.02
2023-04-22T19:58:49.061Z,64.57
2023-04-22T20:01:54.482Z,66.36
2023-04-22T20:04:58.067Z,67.43
2023-04-22T20:08:01.892Z,64.89
2023-04-22T20:11:05.674Z,65.76
2023-04-22T20:14:09.798Z,69.59
2023-04-22T20:17:14.429Z,67.99
2023-04-22T20:20:17.904Z,68.59
2023-04-22T20:23:24.744Z,68.97
2023-04-22T20:26:28.478Z,70.94
2023-04-22T20:29:35.959Z,70.99
2023-04-22T20:32:41.374Z,72.89
2023-04-22T20:35:44.766Z,75.99
2023-04-22T20:38:50.891Z,76.24
2023-04-22T20:41:56.340Z,80.21
2023-04-22T20:44:59.558Z,80.61
2023-04-22T20:48:04.196Z,75.65
2023-04-22T20:51:10.322Z,76.64
2023-04-22T20:54:27.697Z,75.04
2023-04-22T20:57:32.261Z,76.64
2023-04-22T21:00:35.956Z,72.72
2023-04-22T21:03:41.168Z,78.18
2023-04-22T21:06:48.499Z,78.38
2023-04-22T21:09:52.373Z,75.83
2023-04-22T21:12:55.998Z,75.46
2023-04-22T21:16:03.138Z,76.94
2023-04-22T21:19:08.321Z,81.99
2023-04-22T21:22:11.954Z,79.27
2023-04-22T21:25:22.104Z,81.73
2023-04-22T21:28:25.902Z,81.50
2023-04-22T21:31:43.098Z,82.04
2023-04-22T21:34:50.552Z,80.50
2023-04-22T21:37:54.072Z,79.82
2023-04-22T21:40:57.327Z,83.05
2023-04-22T21:44:01.046Z,87.48
2023-04-22T21:47:04.365Z,89.32
2023-04-22T21:50:09.959Z,86.40
2023-04-22T21:53:13.244Z,84.11
2023-04-22T21:56:16.443Z,85.92
2023-04-22T21:59:24.615Z,87.14
2023-04-22T22:02:27.726Z,87.20
2023-04-22T22:05:32.187Z,82.80
2023-04-22T22:08:35.327Z,87.85
2023-04-22T22:11:38.417Z,82.50
2023-04-22T22:14:44.779Z,82.51
2023-04-22T22:17:47.857Z,83.10
2023-04-22T22:20:54.901Z,83.43
2023-04-22T22:24:00.559Z,84.33
2023-04-22T22:27:07.287Z,87.43
2023-04-22T22:30:10.845Z,84.18
2023-04-22T22:33:14.580Z,87.04
2023-04-22T22:36:34.916Z,85.54
2023-04-22T22:39:48.290Z,87.89
2023-04-22T22:42:51.241Z,87.52
2023-04-22T22:45:54.965Z,90.97
2023-04-22T22:48:59.326Z,88.88
2023-04-22T22:52:03.971Z,87.19
2023-04-22T22:55:08.638Z,87.43
2023-04-22T22:58:11.678Z,89.46
2023-04-22T23:01:15.589Z,92.73
2023-04-22T23:04:21.069Z,93.71
2023-04-22T23:07:25.812Z,92.16
2023-04-22T23:10:28.805Z,98.54
2023-04-22T23:13:32.285Z,96.24
2023-04-22T23:16:35.372Z,94.03
2023-04-22T23:19:41.856Z,92.83
2023-04-22T23:22:47.763Z,95.42
2023-04-22T23:25:51.884Z,96.68
2023-04-22T23:28:55.877Z,96.73
2023-04-22T23:32:02.004Z,97.30
2023-04-22T23:35:07.867Z,98.69
2023-04-22T23:38:12.437Z,97.76
2023-04-22T23:41:15.399Z,97.69
2023-04-22T23:44:18.732Z,98.96
2023-04-22T23:47:22.039Z,100.00
2023-04-22T23:50:25.144Z,100.00
2023-04-22T23:53:29.521Z,100.00
2023-04-22T23:56:35.551Z,100.00
2023-04-22T23:59:41.172Z,100.00
